sensor_id;sensor_type;location;lat;lon;timestamp;pressure;altitude;pressure_sealevel;temperature
68440;BMP180;55421;51.600;5.718;2024-01-27T00:00:10;161489.00;;;2.90
68440;BMP180;55421;51.600;5.718;2024-01-27T00:02:37;161477.00;;;2.90
68440;BMP180;55421;51.600;5.718;2024-01-27T00:05:04;161457.59;;;2.80
68440;BMP180;55421;51.600;5.718;2024-01-27T00:07:30;161440.00;;;2.80
68440;BMP180;55421;51.600;5.718;2024-01-27T00:09:57;161414.80;;;2.70
68440;BMP180;55421;51.600;5.718;2024-01-27T00:12:26;161399.59;;;2.70
68440;BMP180;55421;51.600;5.718;2024-01-27T00:14:52;161388.00;;;2.62
68440;BMP180;55421;51.600;5.718;2024-01-27T00:17:19;161388.00;;;2.68
68440;BMP180;55421;51.600;5.718;2024-01-27T00:19:51;161385.20;;;2.62
68440;BMP180;55421;51.600;5.718;2024-01-27T00:22:17;161386.41;;;2.60
68440;BMP180;55421;51.600;5.718;2024-01-27T00:24:44;161384.00;;;2.60
68440;BMP180;55421;51.600;5.718;2024-01-27T00:27:11;161380.00;;;2.60
68440;BMP180;55421;51.600;5.718;2024-01-27T00:29:37;161385.20;;;2.64
68440;BMP180;55421;51.600;5.718;2024-01-27T00:32:04;161382.00;;;2.60
68440;BMP180;55421;51.600;5.718;2024-01-27T00:34:30;161386.00;;;2.62
68440;BMP180;55421;51.600;5.718;2024-01-27T00:36:57;161399.59;;;2.70
68440;BMP180;55421;51.600;5.718;2024-01-27T00:39:23;161397.20;;;2.70
68440;BMP180;55421;51.600;5.718;2024-01-27T00:41:51;161399.59;;;2.70
68440;BMP180;55421;51.600;5.718;2024-01-27T00:44:20;161400.80;;;2.70
68440;BMP180;55421;51.600;5.718;2024-01-27T00:46:47;161380.00;;;2.60
68440;BMP180;55421;51.600;5.718;2024-01-27T00:49:13;161356.00;;;2.60
68440;BMP180;55421;51.600;5.718;2024-01-27T00:51:40;161336.59;;;2.52
68440;BMP180;55421;51.600;5.718;2024-01-27T00:54:06;161321.00;;;2.50
68440;BMP180;55421;51.600;5.718;2024-01-27T00:56:33;161305.00;;;2.50
68440;BMP180;55421;51.600;5.718;2024-01-27T00:58:59;161293.80;;;2.42
68440;BMP180;55421;51.600;5.718;2024-01-27T01:01:26;161288.20;;;2.40
68440;BMP180;55421;51.600;5.718;2024-01-27T01:03:52;161283.80;;;2.40
68440;BMP180;55421;51.600;5.718;2024-01-27T01:06:19;161289.00;;;2.40
68440;BMP180;55421;51.600;5.718;2024-01-27T01:08:46;161281.41;;;2.40
68440;BMP180;55421;51.600;5.718;2024-01-27T01:11:12;161272.20;;;2.40
68440;BMP180;55421;51.600;5.718;2024-01-27T01:13:39;161266.59;;;2.40
68440;BMP180;55421;51.600;5.718;2024-01-27T01:16:06;161262.59;;;2.40
68440;BMP180;55421;51.600;5.718;2024-01-27T01:18:34;161264.59;;;2.40
68440;BMP180;55421;51.600;5.718;2024-01-27T01:21:00;161262.59;;;2.40
68440;BMP180;55421;51.600;5.718;2024-01-27T01:23:27;161252.20;;;2.34
68440;BMP180;55421;51.600;5.718;2024-01-27T01:25:54;161245.20;;;2.30
68440;BMP180;55421;51.600;5.718;2024-01-27T01:28:20;161248.59;;;2.30
68440;BMP180;55421;51.600;5.718;2024-01-27T01:30:47;161236.80;;;2.30
68440;BMP180;55421;51.600;5.718;2024-01-27T01:33:13;161225.20;;;2.30
68440;BMP180;55421;51.600;5.718;2024-01-27T01:35:39;161212.00;;;2.26
68440;BMP180;55421;51.600;5.718;2024-01-27T01:38:06;161200.80;;;2.20
68440;BMP180;55421;51.600;5.718;2024-01-27T01:40:32;161198.41;;;2.20
68440;BMP180;55421;51.600;5.718;2024-01-27T01:42:59;161196.41;;;2.20
68440;BMP180;55421;51.600;5.718;2024-01-27T01:45:26;161203.20;;;2.20
68440;BMP180;55421;51.600;5.718;2024-01-27T01:47:52;161219.20;;;2.30
68440;BMP180;55421;51.600;5.718;2024-01-27T01:50:20;161230.41;;;2.30
68440;BMP180;55421;51.600;5.718;2024-01-27T01:52:51;161237.59;;;2.30
68440;BMP180;55421;51.600;5.718;2024-01-27T01:55:19;161240.41;;;2.30
68440;BMP180;55421;51.600;5.718;2024-01-27T01:57:46;161239.59;;;2.30
68440;BMP180;55421;51.600;5.718;2024-01-27T02:00:13;161239.59;;;2.30
68440;BMP180;55421;51.600;5.718;2024-01-27T02:02:43;161230.80;;;2.30
68440;BMP180;55421;51.600;5.718;2024-01-27T02:05:12;161214.80;;;2.28
68440;BMP180;55421;51.600;5.718;2024-01-27T02:07:39;161197.59;;;2.20
68440;BMP180;55421;51.600;5.718;2024-01-27T02:10:14;161172.00;;;2.16
68440;BMP180;55421;51.600;5.718;2024-01-27T02:12:43;161154.41;;;2.10
68440;BMP180;55421;51.600;5.718;2024-01-27T02:15:12;161138.41;;;2.10
68440;BMP180;55421;51.600;5.718;2024-01-27T02:17:40;161126.00;;;2.00
68440;BMP180;55421;51.600;5.718;2024-01-27T02:20:08;161116.41;;;2.00
68440;BMP180;55421;51.600;5.718;2024-01-27T02:22:35;161112.80;;;2.00
68440;BMP180;55421;51.600;5.718;2024-01-27T02:25:03;161106.20;;;2.00
68440;BMP180;55421;51.600;5.718;2024-01-27T02:27:29;161091.00;;;2.00
68440;BMP180;55421;51.600;5.718;2024-01-27T02:29:56;161091.59;;;2.00
68440;BMP180;55421;51.600;5.718;2024-01-27T02:32:22;161093.59;;;2.00
68440;BMP180;55421;51.600;5.718;2024-01-27T02:34:49;161091.00;;;2.00
68440;BMP180;55421;51.600;5.718;2024-01-27T02:37:15;161091.59;;;2.00
68440;BMP180;55421;51.600;5.718;2024-01-27T02:39:42;161091.00;;;2.00
68440;BMP180;55421;51.600;5.718;2024-01-27T02:42:08;161091.00;;;2.00
68440;BMP180;55421;51.600;5.718;2024-01-27T02:44:35;161085.41;;;1.90
68440;BMP180;55421;51.600;5.718;2024-01-27T02:47:01;161083.00;;;1.94
68440;BMP180;55421;51.600;5.718;2024-01-27T02:49:28;161079.00;;;1.90
68440;BMP180;55421;51.600;5.718;2024-01-27T02:51:54;161066.20;;;1.90
68440;BMP180;55421;51.600;5.718;2024-01-27T02:54:21;161058.59;;;1.90
68440;BMP180;55421;51.600;5.718;2024-01-27T02:56:47;161039.00;;;1.82
68440;BMP180;55421;51.600;5.718;2024-01-27T02:59:14;161022.20;;;1.80
68440;BMP180;55421;51.600;5.718;2024-01-27T03:01:40;161009.41;;;1.80
68440;BMP180;55421;51.600;5.718;2024-01-27T03:04:07;160999.59;;;1.80
68440;BMP180;55421;51.600;5.718;2024-01-27T03:06:33;160990.00;;;1.70
68440;BMP180;55421;51.600;5.718;2024-01-27T03:08:59;160978.41;;;1.70
68440;BMP180;55421;51.600;5.718;2024-01-27T03:11:26;160964.41;;;1.70
68440;BMP180;55421;51.600;5.718;2024-01-27T03:13:52;160955.20;;;1.60
68440;BMP180;55421;51.600;5.718;2024-01-27T03:16:19;160943.20;;;1.60
68440;BMP180;55421;51.600;5.718;2024-01-27T03:18:46;160949.20;;;1.60
68440;BMP180;55421;51.600;5.718;2024-01-27T03:21:12;160946.80;;;1.60
68440;BMP180;55421;51.600;5.718;2024-01-27T03:23:40;160941.20;;;1.60
68440;BMP180;55421;51.600;5.718;2024-01-27T03:26:06;160945.59;;;1.60
68440;BMP180;55421;51.600;5.718;2024-01-27T03:28:33;160946.80;;;1.60
68440;BMP180;55421;51.600;5.718;2024-01-27T03:30:59;160943.20;;;1.60
68440;BMP180;55421;51.600;5.718;2024-01-27T03:33:26;160928.41;;;1.60
68440;BMP180;55421;51.600;5.718;2024-01-27T03:35:55;160927.20;;;1.60
68440;BMP180;55421;51.600;5.718;2024-01-27T03:38:22;160912.41;;;1.56
68440;BMP180;55421;51.600;5.718;2024-01-27T03:40:49;160891.20;;;1.50
68440;BMP180;55421;51.600;5.718;2024-01-27T03:43:15;160884.41;;;1.50
68440;BMP180;55421;51.600;5.718;2024-01-27T03:45:42;160878.80;;;1.50
68440;BMP180;55421;51.600;5.718;2024-01-27T03:48:08;160876.41;;;1.50
68440;BMP180;55421;51.600;5.718;2024-01-27T03:50:34;160879.59;;;1.50
68440;BMP180;55421;51.600;5.718;2024-01-27T03:53:01;160876.41;;;1.50
68440;BMP180;55421;51.600;5.718;2024-01-27T03:55:27;160878.00;;;1.50
68440;BMP180;55421;51.600;5.718;2024-01-27T03:57:54;160876.41;;;1.50
68440;BMP180;55421;51.600;5.718;2024-01-27T04:00:20;160880.80;;;1.50
68440;BMP180;55421;51.600;5.718;2024-01-27T04:02:47;160882.41;;;1.50
68440;BMP180;55421;51.600;5.718;2024-01-27T04:05:13;160880.80;;;1.50
68440;BMP180;55421;51.600;5.718;2024-01-27T04:07:40;160892.00;;;1.50
68440;BMP180;55421;51.600;5.718;2024-01-27T04:10:07;160898.00;;;1.50
68440;BMP180;55421;51.600;5.718;2024-01-27T04:12:33;160891.20;;;1.50
68440;BMP180;55421;51.600;5.718;2024-01-27T04:15:00;160881.59;;;1.50
68440;BMP180;55421;51.600;5.718;2024-01-27T04:17:27;160863.00;;;1.40
68440;BMP180;55421;51.600;5.718;2024-01-27T04:19:53;160853.41;;;1.40
68440;BMP180;55421;51.600;5.718;2024-01-27T04:22:20;160831.00;;;1.40
68440;BMP180;55421;51.600;5.718;2024-01-27T04:24:46;160822.59;;;1.30
68440;BMP180;55421;51.600;5.718;2024-01-27T04:27:13;160807.41;;;1.30
68440;BMP180;55421;51.600;5.718;2024-01-27T04:29:39;160794.59;;;1.30
68440;BMP180;55421;51.600;5.718;2024-01-27T04:32:06;160800.20;;;1.30
68440;BMP180;55421;51.600;5.718;2024-01-27T04:34:32;160801.00;;;1.30
68440;BMP180;55421;51.600;5.718;2024-01-27T04:36:59;160808.20;;;1.30
68440;BMP180;55421;51.600;5.718;2024-01-27T04:39:25;160822.20;;;1.30
68440;BMP180;55421;51.600;5.718;2024-01-27T04:41:52;160829.00;;;1.34
68440;BMP180;55421;51.600;5.718;2024-01-27T04:44:18;160840.20;;;1.40
68440;BMP180;55421;51.600;5.718;2024-01-27T04:46:47;160848.59;;;1.40
68440;BMP180;55421;51.600;5.718;2024-01-27T04:49:15;160857.59;;;1.40
68440;BMP180;55421;51.600;5.718;2024-01-27T04:51:41;160858.80;;;1.40
68440;BMP180;55421;51.600;5.718;2024-01-27T04:54:09;160851.00;;;1.40
68440;BMP180;55421;51.600;5.718;2024-01-27T04:56:35;160838.20;;;1.40
68440;BMP180;55421;51.600;5.718;2024-01-27T04:59:03;160815.00;;;1.30
68440;BMP180;55421;51.600;5.718;2024-01-27T05:01:30;160796.59;;;1.30
68440;BMP180;55421;51.600;5.718;2024-01-27T05:03:56;160792.20;;;1.30
68440;BMP180;55421;51.600;5.718;2024-01-27T05:06:23;160785.41;;;1.30
68440;BMP180;55421;51.600;5.718;2024-01-27T05:08:49;160789.80;;;1.30
68440;BMP180;55421;51.600;5.718;2024-01-27T05:11:28;160784.20;;;1.30
68440;BMP180;55421;51.600;5.718;2024-01-27T05:13:55;160786.20;;;1.28
68440;BMP180;55421;51.600;5.718;2024-01-27T05:16:22;160775.80;;;1.20
68440;BMP180;55421;51.600;5.718;2024-01-27T05:18:48;160762.59;;;1.20
68440;BMP180;55421;51.600;5.718;2024-01-27T05:21:15;160770.20;;;1.22
68440;BMP180;55421;51.600;5.718;2024-01-27T05:23:42;160759.80;;;1.20
68440;BMP180;55421;51.600;5.718;2024-01-27T05:26:08;160737.20;;;1.20
68440;BMP180;55421;51.600;5.718;2024-01-27T05:28:38;160729.20;;;1.10
68440;BMP180;55421;51.600;5.718;2024-01-27T05:31:07;160718.80;;;1.10
68440;BMP180;55421;51.600;5.718;2024-01-27T05:33:36;160703.59;;;1.10
68440;BMP180;55421;51.600;5.718;2024-01-27T05:36:03;160688.41;;;1.00
68440;BMP180;55421;51.600;5.718;2024-01-27T05:38:29;160673.59;;;1.00
68440;BMP180;55421;51.600;5.718;2024-01-27T05:41:02;160660.80;;;1.00
68440;BMP180;55421;51.600;5.718;2024-01-27T05:43:29;160664.00;;;1.00
68440;BMP180;55421;51.600;5.718;2024-01-27T05:45:55;160663.20;;;1.00
68440;BMP180;55421;51.600;5.718;2024-01-27T05:48:22;160652.80;;;0.96
68440;BMP180;55421;51.600;5.718;2024-01-27T05:50:59;160650.41;;;0.92
68440;BMP180;55421;51.600;5.718;2024-01-27T05:53:27;160648.41;;;0.90
68440;BMP180;55421;51.600;5.718;2024-01-27T05:55:54;160647.20;;;0.90
68440;BMP180;55421;51.600;5.718;2024-01-27T05:58:20;160644.80;;;0.90
68440;BMP180;55421;51.600;5.718;2024-01-27T06:00:48;160625.00;;;0.90
68440;BMP180;55421;51.600;5.718;2024-01-27T06:03:14;160619.00;;;0.86
68440;BMP180;55421;51.600;5.718;2024-01-27T06:05:41;160612.59;;;0.80
68440;BMP180;55421;51.600;5.718;2024-01-27T06:08:11;160594.59;;;0.80
68440;BMP180;55421;51.600;5.718;2024-01-27T06:10:38;160585.41;;;0.80
68440;BMP180;55421;51.600;5.718;2024-01-27T06:13:04;160583.41;;;0.80
68440;BMP180;55421;51.600;5.718;2024-01-27T06:15:31;160591.41;;;0.80
68440;BMP180;55421;51.600;5.718;2024-01-27T06:17:58;160584.20;;;0.80
68440;BMP180;55421;51.600;5.718;2024-01-27T06:20:25;160584.59;;;0.80
68440;BMP180;55421;51.600;5.718;2024-01-27T06:22:51;160592.20;;;0.80
68440;BMP180;55421;51.600;5.718;2024-01-27T06:25:21;160607.41;;;0.80
68440;BMP180;55421;51.600;5.718;2024-01-27T06:27:47;160610.59;;;0.80
68440;BMP180;55421;51.600;5.718;2024-01-27T06:30:15;160600.59;;;0.80
68440;BMP180;55421;51.600;5.718;2024-01-27T06:32:44;160589.80;;;0.80
68440;BMP180;55421;51.600;5.718;2024-01-27T06:35:10;160590.20;;;0.80
68440;BMP180;55421;51.600;5.718;2024-01-27T06:37:37;160578.59;;;0.80
68440;BMP180;55421;51.600;5.718;2024-01-27T06:40:04;160567.00;;;0.70
68440;BMP180;55421;51.600;5.718;2024-01-27T06:42:31;160541.80;;;0.70
68440;BMP180;55421;51.600;5.718;2024-01-27T06:44:57;160529.80;;;0.70
68440;BMP180;55421;51.600;5.718;2024-01-27T06:47:24;160526.20;;;0.66
68440;BMP180;55421;51.600;5.718;2024-01-27T06:49:50;160505.00;;;0.60
68440;BMP180;55421;51.600;5.718;2024-01-27T06:52:17;160506.20;;;0.60
68440;BMP180;55421;51.600;5.718;2024-01-27T06:54:43;160502.41;;;0.60
68440;BMP180;55421;51.600;5.718;2024-01-27T06:57:20;160498.00;;;0.60
68440;BMP180;55421;51.600;5.718;2024-01-27T06:59:48;160498.00;;;0.60
68440;BMP180;55421;51.600;5.718;2024-01-27T07:02:23;160487.20;;;0.60
68440;BMP180;55421;51.600;5.718;2024-01-27T07:04:50;160468.80;;;0.50
68440;BMP180;55421;51.600;5.718;2024-01-27T07:07:21;160462.80;;;0.50
68440;BMP180;55421;51.600;5.718;2024-01-27T07:09:48;160444.41;;;0.50
68440;BMP180;55421;51.600;5.718;2024-01-27T07:12:15;160428.00;;;0.40
68440;BMP180;55421;51.600;5.718;2024-01-27T07:14:42;160410.00;;;0.40
68440;BMP180;55421;51.600;5.718;2024-01-27T07:17:08;160407.20;;;0.40
68440;BMP180;55421;51.600;5.718;2024-01-27T07:19:34;160390.59;;;0.32
68440;BMP180;55421;51.600;5.718;2024-01-27T07:22:01;160394.20;;;0.38
68440;BMP180;55421;51.600;5.718;2024-01-27T07:24:30;160400.00;;;0.40
68440;BMP180;55421;51.600;5.718;2024-01-27T07:27:00;160410.80;;;0.40
68440;BMP180;55421;51.600;5.718;2024-01-27T07:29:28;160422.00;;;0.40
68440;BMP180;55421;51.600;5.718;2024-01-27T07:31:54;160433.59;;;0.40
68440;BMP180;55421;51.600;5.718;2024-01-27T07:34:21;160443.20;;;0.50
68440;BMP180;55421;51.600;5.718;2024-01-27T07:36:47;160465.20;;;0.50
68440;BMP180;55421;51.600;5.718;2024-01-27T07:39:15;160474.80;;;0.50
68440;BMP180;55421;51.600;5.718;2024-01-27T07:41:42;160490.80;;;0.60
68440;BMP180;55421;51.600;5.718;2024-01-27T07:44:15;160508.20;;;0.60
68440;BMP180;55421;51.600;5.718;2024-01-27T07:46:42;160532.20;;;0.68
68440;BMP180;55421;51.600;5.718;2024-01-27T07:49:09;160539.00;;;0.70
68440;BMP180;55421;51.600;5.718;2024-01-27T07:51:36;160549.80;;;0.70
68440;BMP180;55421;51.600;5.718;2024-01-27T07:54:02;160566.20;;;0.70
68440;BMP180;55421;51.600;5.718;2024-01-27T07:56:29;160569.41;;;0.72
68440;BMP180;55421;51.600;5.718;2024-01-27T07:58:55;160575.41;;;0.78
68440;BMP180;55421;51.600;5.718;2024-01-27T08:01:22;160584.20;;;0.80
68440;BMP180;55421;51.600;5.718;2024-01-27T08:03:48;160593.41;;;0.80
68440;BMP180;55421;51.600;5.718;2024-01-27T08:06:18;160611.80;;;0.82
68440;BMP180;55421;51.600;5.718;2024-01-27T08:08:48;160623.80;;;0.90
68440;BMP180;55421;51.600;5.718;2024-01-27T08:11:17;160646.00;;;0.90
68440;BMP180;55421;51.600;5.718;2024-01-27T08:13:44;160676.00;;;1.00
68440;BMP180;55421;51.600;5.718;2024-01-27T08:16:11;160712.80;;;1.10
68440;BMP180;55421;51.600;5.718;2024-01-27T08:18:40;160731.20;;;1.10
68440;BMP180;55421;51.600;5.718;2024-01-27T08:21:08;160757.41;;;1.20
68440;BMP180;55421;51.600;5.718;2024-01-27T08:23:35;160777.00;;;1.22
68440;BMP180;55421;51.600;5.718;2024-01-27T08:26:02;160792.20;;;1.30
68440;BMP180;55421;51.600;5.718;2024-01-27T08:28:29;160794.59;;;1.30
68440;BMP180;55421;51.600;5.718;2024-01-27T08:30:55;160801.00;;;1.30
68440;BMP180;55421;51.600;5.718;2024-01-27T08:33:22;160808.20;;;1.30
68440;BMP180;55421;51.600;5.718;2024-01-27T08:35:48;160829.00;;;1.36
68440;BMP180;55421;51.600;5.718;2024-01-27T08:38:15;160856.41;;;1.40
68440;BMP180;55421;51.600;5.718;2024-01-27T08:40:41;160880.41;;;1.50
68440;BMP180;55421;51.600;5.718;2024-01-27T08:43:08;160908.80;;;1.54
68440;BMP180;55421;51.600;5.718;2024-01-27T08:45:40;160943.59;;;1.60
68440;BMP180;55421;51.600;5.718;2024-01-27T08:48:07;160971.20;;;1.70
68440;BMP180;55421;51.600;5.718;2024-01-27T08:50:33;161000.20;;;1.78
68440;BMP180;55421;51.600;5.718;2024-01-27T08:53:00;161023.41;;;1.80
68440;BMP180;55421;51.600;5.718;2024-01-27T08:55:27;161045.00;;;1.86
68440;BMP180;55421;51.600;5.718;2024-01-27T08:57:53;161059.00;;;1.90
68440;BMP180;55421;51.600;5.718;2024-01-27T09:00:20;161070.20;;;1.90
68440;BMP180;55421;51.600;5.718;2024-01-27T09:02:46;161063.41;;;1.90
68440;BMP180;55421;51.600;5.718;2024-01-27T09:05:14;161070.20;;;1.90
68440;BMP180;55421;51.600;5.718;2024-01-27T09:07:40;161068.59;;;1.90
68440;BMP180;55421;51.600;5.718;2024-01-27T09:10:08;161086.59;;;2.00
68440;BMP180;55421;51.600;5.718;2024-01-27T09:12:35;161105.59;;;2.00
68440;BMP180;55421;51.600;5.718;2024-01-27T09:15:02;161118.80;;;2.00
68440;BMP180;55421;51.600;5.718;2024-01-27T09:17:29;161146.41;;;2.10
68440;BMP180;55421;51.600;5.718;2024-01-27T09:19:56;161179.59;;;2.20
68440;BMP180;55421;51.600;5.718;2024-01-27T09:22:23;161197.20;;;2.20
68440;BMP180;55421;51.600;5.718;2024-01-27T09:24:51;161222.80;;;2.30
68440;BMP180;55421;51.600;5.718;2024-01-27T09:27:18;161245.00;;;2.30
68440;BMP180;55421;51.600;5.718;2024-01-27T09:29:45;161271.00;;;2.40
68440;BMP180;55421;51.600;5.718;2024-01-27T09:32:12;161295.00;;;2.40
68440;BMP180;55421;51.600;5.718;2024-01-27T09:34:38;161328.20;;;2.50
68440;BMP180;55421;51.600;5.718;2024-01-27T09:37:04;161358.00;;;2.60
68440;BMP180;55421;51.600;5.718;2024-01-27T09:39:31;161383.59;;;2.62
68440;BMP180;55421;51.600;5.718;2024-01-27T09:42:04;161406.80;;;2.70
68440;BMP180;55421;51.600;5.718;2024-01-27T09:44:35;161435.59;;;2.80
68440;BMP180;55421;51.600;5.718;2024-01-27T09:47:02;161468.00;;;2.82
68440;BMP180;55421;51.600;5.718;2024-01-27T09:49:31;161493.80;;;2.90
68440;BMP180;55421;51.600;5.718;2024-01-27T09:51:58;161509.80;;;2.90
68440;BMP180;55421;51.600;5.718;2024-01-27T09:54:25;161515.80;;;2.92
68440;BMP180;55421;51.600;5.718;2024-01-27T09:56:52;161529.80;;;3.00
68440;BMP180;55421;51.600;5.718;2024-01-27T09:59:20;161539.41;;;3.00
68440;BMP180;55421;51.600;5.718;2024-01-27T10:01:48;161546.20;;;3.00
68440;BMP180;55421;51.600;5.718;2024-01-27T10:04:15;161556.20;;;3.04
68440;BMP180;55421;51.600;5.718;2024-01-27T10:06:42;161564.80;;;3.10
68440;BMP180;55421;51.600;5.718;2024-01-27T10:09:09;161582.80;;;3.10
68440;BMP180;55421;51.600;5.718;2024-01-27T10:11:38;161614.80;;;3.20
68440;BMP180;55421;51.600;5.718;2024-01-27T10:14:07;161656.00;;;3.30
68440;BMP180;55421;51.600;5.718;2024-01-27T10:16:42;161676.41;;;3.30
68440;BMP180;55421;51.600;5.718;2024-01-27T10:19:18;161705.59;;;3.40
68440;BMP180;55421;51.600;5.718;2024-01-27T10:21:46;161739.80;;;3.50
68440;BMP180;55421;51.600;5.718;2024-01-27T10:24:14;161763.80;;;3.50
68440;BMP180;55421;51.600;5.718;2024-01-27T10:26:40;161797.80;;;3.60
68440;BMP180;55421;51.600;5.718;2024-01-27T10:29:08;161820.00;;;3.70
68440;BMP180;55421;51.600;5.718;2024-01-27T10:31:35;161828.41;;;3.70
68440;BMP180;55421;51.600;5.718;2024-01-27T10:34:02;161846.80;;;3.70
68440;BMP180;55421;51.600;5.718;2024-01-27T10:36:42;161857.59;;;3.76
68440;BMP180;55421;51.600;5.718;2024-01-27T10:39:21;161875.20;;;3.80
68440;BMP180;55421;51.600;5.718;2024-01-27T10:41:49;161892.00;;;3.80
68440;BMP180;55421;51.600;5.718;2024-01-27T10:44:19;161926.41;;;3.90
68440;BMP180;55421;51.600;5.718;2024-01-27T10:46:48;161959.41;;;4.00
68440;BMP180;55421;51.600;5.718;2024-01-27T10:49:17;161992.20;;;4.08
68440;BMP180;55421;51.600;5.718;2024-01-27T10:51:54;162020.59;;;4.10
68440;BMP180;55421;51.600;5.718;2024-01-27T10:54:27;162063.59;;;4.20
68440;BMP180;55421;51.600;5.718;2024-01-27T10:56:58;162110.41;;;4.30
68440;BMP180;55421;51.600;5.718;2024-01-27T10:59:30;162153.20;;;4.40
68440;BMP180;55421;51.600;5.718;2024-01-27T11:01:58;162167.20;;;4.50
68440;BMP180;55421;51.600;5.718;2024-01-27T11:04:25;162184.80;;;4.50
68440;BMP180;55421;51.600;5.718;2024-01-27T11:06:56;162191.41;;;4.52
68440;BMP180;55421;51.600;5.718;2024-01-27T11:09:24;162209.00;;;4.58
68440;BMP180;55421;51.600;5.718;2024-01-27T11:11:51;162221.00;;;4.60
68440;BMP180;55421;51.600;5.718;2024-01-27T11:14:18;162238.59;;;4.60
68440;BMP180;55421;51.600;5.718;2024-01-27T11:16:45;162251.80;;;4.68
68440;BMP180;55421;51.600;5.718;2024-01-27T11:19:16;162281.80;;;4.70
68440;BMP180;55421;51.600;5.718;2024-01-27T11:21:43;162306.20;;;4.80
68440;BMP180;55421;51.600;5.718;2024-01-27T11:24:17;162319.20;;;4.80
68440;BMP180;55421;51.600;5.718;2024-01-27T11:26:45;162332.41;;;4.90
68440;BMP180;55421;51.600;5.718;2024-01-27T11:29:12;162350.00;;;4.90
68440;BMP180;55421;51.600;5.718;2024-01-27T11:31:48;162358.41;;;4.90
68440;BMP180;55421;51.600;5.718;2024-01-27T11:34:17;162367.59;;;4.92
68440;BMP180;55421;51.600;5.718;2024-01-27T11:36:46;162384.00;;;5.00
68440;BMP180;55421;51.600;5.718;2024-01-27T11:39:42;162394.00;;;5.00
68440;BMP180;55421;51.600;5.718;2024-01-27T11:42:14;162411.59;;;5.00
68440;BMP180;55421;51.600;5.718;2024-01-27T11:44:42;162430.41;;;5.10
68440;BMP180;55421;51.600;5.718;2024-01-27T11:47:18;162458.59;;;5.18
68440;BMP180;55421;51.600;5.718;2024-01-27T11:49:54;162485.41;;;5.20
68440;BMP180;55421;51.600;5.718;2024-01-27T11:52:24;162511.00;;;5.24
68440;BMP180;55421;51.600;5.718;2024-01-27T11:54:59;162523.00;;;5.30
68440;BMP180;55421;51.600;5.718;2024-01-27T11:57:27;162541.80;;;5.30
68440;BMP180;55421;51.600;5.718;2024-01-27T11:59:54;162562.59;;;5.40
68440;BMP180;55421;51.600;5.718;2024-01-27T12:02:21;162581.20;;;5.40
68440;BMP180;55421;51.600;5.718;2024-01-27T12:04:48;162590.00;;;5.50
68440;BMP180;55421;51.600;5.718;2024-01-27T12:07:16;162612.00;;;5.50
68440;BMP180;55421;51.600;5.718;2024-01-27T12:09:45;162635.59;;;5.60
68440;BMP180;55421;51.600;5.718;2024-01-27T12:12:13;162665.20;;;5.60
68440;BMP180;55421;51.600;5.718;2024-01-27T12:14:49;162678.59;;;5.70
68440;BMP180;55421;51.600;5.718;2024-01-27T12:17:16;162692.20;;;5.70
68440;BMP180;55421;51.600;5.718;2024-01-27T12:19:49;162707.00;;;5.70
68440;BMP180;55421;51.600;5.718;2024-01-27T12:22:28;162717.80;;;5.80
68440;BMP180;55421;51.600;5.718;2024-01-27T12:25:07;162728.20;;;5.80
68440;BMP180;55421;51.600;5.718;2024-01-27T12:27:34;162732.59;;;5.80
68440;BMP180;55421;51.600;5.718;2024-01-27T12:30:02;162739.80;;;5.80
68440;BMP180;55421;51.600;5.718;2024-01-27T12:32:28;162759.00;;;5.86
68440;BMP180;55421;51.600;5.718;2024-01-27T12:34:55;162773.00;;;5.90
68440;BMP180;55421;51.600;5.718;2024-01-27T12:37:22;162796.20;;;5.90
68440;BMP180;55421;51.600;5.718;2024-01-27T12:39:48;162807.00;;;5.94
68440;BMP180;55421;51.600;5.718;2024-01-27T12:42:17;162821.00;;;6.00
68440;BMP180;55421;51.600;5.718;2024-01-27T12:44:44;162735.41;;;6.00
68440;BMP180;55421;51.600;5.718;2024-01-27T12:47:11;162611.80;;;6.00
68440;BMP180;55421;51.600;5.718;2024-01-27T12:49:37;161913.41;;;6.04
68440;BMP180;55421;51.600;5.718;2024-01-27T12:52:05;161473.41;;;6.10
68440;BMP180;55421;51.600;5.718;2024-01-27T12:54:33;161006.20;;;6.10
68440;BMP180;55421;51.600;5.718;2024-01-27T12:56:59;160114.59;;;6.10
68440;BMP180;55421;51.600;5.718;2024-01-27T12:59:28;159294.41;;;6.10
68440;BMP180;55421;51.600;5.718;2024-01-27T13:01:55;159378.00;;;6.10
68440;BMP180;55421;51.600;5.718;2024-01-27T13:04:22;158199.20;;;6.10
68440;BMP180;55421;51.600;5.718;2024-01-27T13:06:49;157237.41;;;6.00
68440;BMP180;55421;51.600;5.718;2024-01-27T13:09:16;156494.80;;;6.00
68440;BMP180;55421;51.600;5.718;2024-01-27T13:11:43;156168.20;;;6.08
68440;BMP180;55421;51.600;5.718;2024-01-27T13:14:11;156049.41;;;6.10
68440;BMP180;55421;51.600;5.718;2024-01-27T13:16:39;154682.41;;;6.20
68440;BMP180;55421;51.600;5.718;2024-01-27T13:19:05;154667.41;;;6.20
68440;BMP180;55421;51.600;5.718;2024-01-27T13:21:32;153561.80;;;6.20
68440;BMP180;55421;51.600;5.718;2024-01-27T13:23:58;153620.00;;;6.20
68440;BMP180;55421;51.600;5.718;2024-01-27T13:26:25;153525.00;;;6.20
68440;BMP180;55421;51.600;5.718;2024-01-27T13:28:51;153283.80;;;6.16
68440;BMP180;55421;51.600;5.718;2024-01-27T13:31:18;152809.41;;;6.18
68440;BMP180;55421;51.600;5.718;2024-01-27T13:33:44;152659.20;;;6.14
68440;BMP180;55421;51.600;5.718;2024-01-27T13:36:11;152618.20;;;6.14
68440;BMP180;55421;51.600;5.718;2024-01-27T13:38:37;152572.41;;;6.20
68440;BMP180;55421;51.600;5.718;2024-01-27T13:41:04;152585.41;;;6.20
68440;BMP180;55421;51.600;5.718;2024-01-27T13:43:30;152700.41;;;6.20
68440;BMP180;55421;51.600;5.718;2024-01-27T13:45:57;153040.20;;;6.28
68440;BMP180;55421;51.600;5.718;2024-01-27T13:48:24;152588.20;;;6.30
68440;BMP180;55421;51.600;5.718;2024-01-27T13:50:52;152317.80;;;6.30
68440;BMP180;55421;51.600;5.718;2024-01-27T13:53:19;151402.20;;;6.30
68440;BMP180;55421;51.600;5.718;2024-01-27T13:55:45;150772.59;;;6.30
68440;BMP180;55421;51.600;5.718;2024-01-27T13:58:12;150755.20;;;6.34
68440;BMP180;55421;51.600;5.718;2024-01-27T14:00:38;149316.80;;;6.40
68440;BMP180;55421;51.600;5.718;2024-01-27T14:03:05;147966.20;;;6.40
68440;BMP180;55421;51.600;5.718;2024-01-27T14:05:32;146923.59;;;6.40
68440;BMP180;55421;51.600;5.718;2024-01-27T14:07:58;146822.59;;;6.42
68440;BMP180;55421;51.600;5.718;2024-01-27T14:10:26;146792.20;;;6.40